sensor_id;sensor_type;location;lat;lon;timestamp;P1;durP1;ratioP1;P2;durP2;ratioP2
23444;SDS011;11895;48.738;9.320;2023-02-01T00:01:12;8.43;;;3.77;;
23444;SDS011;11895;48.738;9.320;2023-02-01T00:03:40;5.55;;;3.42;;
23444;SDS011;11895;48.738;9.320;2023-02-01T00:06:07;5.80;;;3.22;;
23444;SDS011;11895;48.738;9.320;2023-02-01T00:08:36;6.17;;;3.27;;
23444;SDS011;11895;48.738;9.320;2023-02-01T00:11:04;5.95;;;3.38;;
23444;SDS011;11895;48.738;9.320;2023-02-01T00:13:36;4.55;;;2.78;;
23444;SDS011;11895;48.738;9.320;2023-02-01T00:16:07;6.15;;;3.40;;
23444;SDS011;11895;48.738;9.320;2023-02-01T00:18:49;6.15;;;3.67;;
23444;SDS011;11895;48.738;9.320;2023-02-01T00:21:19;5.50;;;3.72;;
23444;SDS011;11895;48.738;9.320;2023-02-01T00:23:47;4.80;;;3.10;;
23444;SDS011;11895;48.738;9.320;2023-02-01T00:28:51;7.18;;;3.42;;
23444;SDS011;11895;48.738;9.320;2023-02-01T00:31:19;5.32;;;3.33;;
23444;SDS011;11895;48.738;9.320;2023-02-01T00:33:48;5.72;;;3.50;;
23444;SDS011;11895;48.738;9.320;2023-02-01T00:36:16;4.72;;;2.97;;
23444;SDS011;11895;48.738;9.320;2023-02-01T00:38:44;3.78;;;2.40;;
23444;SDS011;11895;48.738;9.320;2023-02-01T00:41:14;4.03;;;2.83;;
23444;SDS011;11895;48.738;9.320;2023-02-01T00:43:45;5.57;;;2.80;;
23444;SDS011;11895;48.738;9.320;2023-02-01T00:46:14;3.90;;;2.65;;
23444;SDS011;11895;48.738;9.320;2023-02-01T00:48:45;4.55;;;2.97;;
23444;SDS011;11895;48.738;9.320;2023-02-01T00:51:18;4.88;;;2.70;;
23444;SDS011;11895;48.738;9.320;2023-02-01T00:53:52;4.60;;;2.77;;
23444;SDS011;11895;48.738;9.320;2023-02-01T00:56:20;4.10;;;2.90;;
23444;SDS011;11895;48.738;9.320;2023-02-01T00:58:48;6.07;;;2.65;;
23444;SDS011;11895;48.738;9.320;2023-02-01T01:01:18;5.95;;;2.58;;
23444;SDS011;11895;48.738;9.320;2023-02-01T01:03:51;4.45;;;2.50;;
23444;SDS011;11895;48.738;9.320;2023-02-01T01:06:23;4.00;;;2.70;;
23444;SDS011;11895;48.738;9.320;2023-02-01T01:08:58;4.22;;;2.30;;
23444;SDS011;11895;48.738;9.320;2023-02-01T01:11:30;4.22;;;2.50;;
23444;SDS011;11895;48.738;9.320;2023-02-01T01:14:01;6.70;;;2.90;;
23444;SDS011;11895;48.738;9.320;2023-02-01T01:18:59;3.63;;;2.53;;
23444;SDS011;11895;48.738;9.320;2023-02-01T01:21:28;6.28;;;2.80;;
23444;SDS011;11895;48.738;9.320;2023-02-01T01:23:58;5.60;;;2.65;;
23444;SDS011;11895;48.738;9.320;2023-02-01T01:26:26;3.90;;;2.90;;
23444;SDS011;11895;48.738;9.320;2023-02-01T01:28:57;5.10;;;2.67;;
23444;SDS011;11895;48.738;9.320;2023-02-01T01:31:25;7.57;;;2.50;;
23444;SDS011;11895;48.738;9.320;2023-02-01T01:36:24;4.03;;;2.45;;
23444;SDS011;11895;48.738;9.320;2023-02-01T01:38:54;5.68;;;2.60;;
23444;SDS011;11895;48.738;9.320;2023-02-01T01:41:23;3.95;;;2.25;;
23444;SDS011;11895;48.738;9.320;2023-02-01T01:44:00;9.05;;;4.75;;
23444;SDS011;11895;48.738;9.320;2023-02-01T01:46:37;5.07;;;2.55;;
23444;SDS011;11895;48.738;9.320;2023-02-01T01:49:17;4.35;;;2.70;;
23444;SDS011;11895;48.738;9.320;2023-02-01T01:51:51;4.32;;;2.50;;
23444;SDS011;11895;48.738;9.320;2023-02-01T01:54:37;4.07;;;2.65;;
23444;SDS011;11895;48.738;9.320;2023-02-01T01:57:14;6.13;;;2.60;;
23444;SDS011;11895;48.738;9.320;2023-02-01T01:59:50;7.57;;;2.50;;
23444;SDS011;11895;48.738;9.320;2023-02-01T02:02:38;4.13;;;2.45;;
23444;SDS011;11895;48.738;9.320;2023-02-01T02:05:10;3.30;;;2.58;;
23444;SDS011;11895;48.738;9.320;2023-02-01T02:07:41;5.30;;;2.67;;
23444;SDS011;11895;48.738;9.320;2023-02-01T02:10:14;2.80;;;2.20;;
23444;SDS011;11895;48.738;9.320;2023-02-01T02:12:43;5.90;;;2.35;;
23444;SDS011;11895;48.738;9.320;2023-02-01T02:15:14;4.13;;;2.70;;
23444;SDS011;11895;48.738;9.320;2023-02-01T02:23:22;4.68;;;2.55;;
23444;SDS011;11895;48.738;9.320;2023-02-01T02:35:41;2.22;;;1.85;;
23444;SDS011;11895;48.738;9.320;2023-02-01T02:43:43;4.70;;;2.00;;
23444;SDS011;11895;48.738;9.320;2023-02-01T02:46:38;3.20;;;1.98;;
23444;SDS011;11895;48.738;9.320;2023-02-01T02:49:34;3.30;;;2.38;;
23444;SDS011;11895;48.738;9.320;2023-02-01T02:53:15;2.90;;;1.95;;
23444;SDS011;11895;48.738;9.320;2023-02-01T02:56:08;2.38;;;1.95;;
23444;SDS011;11895;48.738;9.320;2023-02-01T02:58:57;2.90;;;2.17;;
23444;SDS011;11895;48.738;9.320;2023-02-01T03:01:44;2.42;;;1.85;;
23444;SDS011;11895;48.738;9.320;2023-02-01T03:04:31;6.45;;;2.30;;
23444;SDS011;11895;48.738;9.320;2023-02-01T03:07:44;5.00;;;2.95;;
23444;SDS011;11895;48.738;9.320;2023-02-01T03:10:33;2.97;;;2.10;;
23444;SDS011;11895;48.738;9.320;2023-02-01T03:13:32;4.70;;;2.75;;
23444;SDS011;11895;48.738;9.320;2023-02-01T03:18:52;4.47;;;2.70;;
23444;SDS011;11895;48.738;9.320;2023-02-01T03:24:25;4.85;;;2.83;;
23444;SDS011;11895;48.738;9.320;2023-02-01T03:29:57;4.25;;;3.05;;
23444;SDS011;11895;48.738;9.320;2023-02-01T03:32:45;5.07;;;2.78;;
23444;SDS011;11895;48.738;9.320;2023-02-01T03:35:39;4.38;;;3.10;;
23444;SDS011;11895;48.738;9.320;2023-02-01T03:41:20;3.28;;;2.70;;
23444;SDS011;11895;48.738;9.320;2023-02-01T03:46:35;4.43;;;3.05;;
23444;SDS011;11895;48.738;9.320;2023-02-01T03:49:15;6.93;;;2.70;;
23444;SDS011;11895;48.738;9.320;2023-02-01T03:51:57;5.50;;;3.08;;
23444;SDS011;11895;48.738;9.320;2023-02-01T03:54:27;4.32;;;2.92;;
23444;SDS011;11895;48.738;9.320;2023-02-01T03:56:57;4.10;;;2.60;;
23444;SDS011;11895;48.738;9.320;2023-02-01T03:59:31;3.28;;;2.45;;
23444;SDS011;11895;48.738;9.320;2023-02-01T04:01:59;5.85;;;2.78;;
23444;SDS011;11895;48.738;9.320;2023-02-01T04:04:27;3.33;;;2.60;;
23444;SDS011;11895;48.738;9.320;2023-02-01T04:06:55;3.67;;;2.55;;
23444;SDS011;11895;48.738;9.320;2023-02-01T04:09:23;5.80;;;2.72;;
23444;SDS011;11895;48.738;9.320;2023-02-01T04:11:51;3.80;;;2.90;;
23444;SDS011;11895;48.738;9.320;2023-02-01T04:14:19;3.67;;;2.38;;
23444;SDS011;11895;48.738;9.320;2023-02-01T04:16:46;3.42;;;2.35;;
23444;SDS011;11895;48.738;9.320;2023-02-01T04:19:14;3.65;;;2.70;;
23444;SDS011;11895;48.738;9.320;2023-02-01T04:21:42;3.55;;;2.50;;
23444;SDS011;11895;48.738;9.320;2023-02-01T04:24:10;3.97;;;2.67;;
23444;SDS011;11895;48.738;9.320;2023-02-01T04:26:38;4.78;;;2.55;;
23444;SDS011;11895;48.738;9.320;2023-02-01T04:29:07;4.30;;;2.45;;
23444;SDS011;11895;48.738;9.320;2023-02-01T04:31:36;3.92;;;2.40;;
23444;SDS011;11895;48.738;9.320;2023-02-01T04:34:04;3.03;;;2.40;;
23444;SDS011;11895;48.738;9.320;2023-02-01T04:36:31;2.67;;;2.30;;
23444;SDS011;11895;48.738;9.320;2023-02-01T04:38:59;3.13;;;2.22;;
23444;SDS011;11895;48.738;9.320;2023-02-01T04:41:26;3.83;;;2.60;;
23444;SDS011;11895;48.738;9.320;2023-02-01T04:43:55;4.30;;;2.45;;
23444;SDS011;11895;48.738;9.320;2023-02-01T04:46:23;4.35;;;2.33;;
23444;SDS011;11895;48.738;9.320;2023-02-01T04:48:50;3.60;;;2.53;;
23444;SDS011;11895;48.738;9.320;2023-02-01T04:51:18;3.80;;;2.47;;
23444;SDS011;11895;48.738;9.320;2023-02-01T04:53:46;3.53;;;2.40;;
23444;SDS011;11895;48.738;9.320;2023-02-01T04:56:14;4.93;;;2.50;;
23444;SDS011;11895;48.738;9.320;2023-02-01T04:58:41;3.55;;;2.22;;
23444;SDS011;11895;48.738;9.320;2023-02-01T05:01:09;3.70;;;2.40;;
23444;SDS011;11895;48.738;9.320;2023-02-01T05:03:37;6.50;;;2.30;;
23444;SDS011;11895;48.738;9.320;2023-02-01T05:06:04;5.72;;;2.58;;
23444;SDS011;11895;48.738;9.320;2023-02-01T05:08:32;3.60;;;2.67;;
23444;SDS011;11895;48.738;9.320;2023-02-01T05:11:02;4.10;;;2.30;;
23444;SDS011;11895;48.738;9.320;2023-02-01T05:13:30;3.45;;;2.42;;
23444;SDS011;11895;48.738;9.320;2023-02-01T05:16:16;3.92;;;2.30;;
23444;SDS011;11895;48.738;9.320;2023-02-01T05:18:47;2.83;;;1.95;;
23444;SDS011;11895;48.738;9.320;2023-02-01T05:21:15;3.80;;;2.50;;
23444;SDS011;11895;48.738;9.320;2023-02-01T05:23:43;3.63;;;2.65;;
23444;SDS011;11895;48.738;9.320;2023-02-01T05:26:29;3.85;;;2.55;;
23444;SDS011;11895;48.738;9.320;2023-02-01T05:28:58;3.53;;;2.40;;
23444;SDS011;11895;48.738;9.320;2023-02-01T05:31:26;4.47;;;2.08;;
23444;SDS011;11895;48.738;9.320;2023-02-01T05:33:54;2.40;;;1.80;;
23444;SDS011;11895;48.738;9.320;2023-02-01T05:36:22;3.22;;;2.00;;
23444;SDS011;11895;48.738;9.320;2023-02-01T05:38:50;2.38;;;1.80;;
23444;SDS011;11895;48.738;9.320;2023-02-01T05:41:18;2.92;;;2.22;;
23444;SDS011;11895;48.738;9.320;2023-02-01T05:43:45;2.63;;;2.00;;
23444;SDS011;11895;48.738;9.320;2023-02-01T05:46:13;3.75;;;2.03;;
23444;SDS011;11895;48.738;9.320;2023-02-01T05:48:41;3.58;;;2.00;;
23444;SDS011;11895;48.738;9.320;2023-02-01T05:51:09;4.28;;;2.08;;
23444;SDS011;11895;48.738;9.320;2023-02-01T05:53:38;3.53;;;2.05;;
23444;SDS011;11895;48.738;9.320;2023-02-01T05:56:06;5.65;;;2.60;;
23444;SDS011;11895;48.738;9.320;2023-02-01T05:58:34;3.07;;;2.00;;
23444;SDS011;11895;48.738;9.320;2023-02-01T06:01:02;4.22;;;2.13;;
23444;SDS011;11895;48.738;9.320;2023-02-01T06:03:30;6.13;;;2.67;;
23444;SDS011;11895;48.738;9.320;2023-02-01T06:05:58;3.72;;;2.30;;
23444;SDS011;11895;48.738;9.320;2023-02-01T06:08:27;3.08;;;2.15;;
23444;SDS011;11895;48.738;9.320;2023-02-01T06:10:59;3.72;;;2.47;;
23444;SDS011;11895;48.738;9.320;2023-02-01T06:13:29;3.72;;;2.42;;
23444;SDS011;11895;48.738;9.320;2023-02-01T06:16:00;3.75;;;2.28;;
23444;SDS011;11895;48.738;9.320;2023-02-01T06:18:30;3.28;;;2.45;;
23444;SDS011;11895;48.738;9.320;2023-02-01T06:20:58;5.72;;;2.63;;
23444;SDS011;11895;48.738;9.320;2023-02-01T06:23:27;5.22;;;2.60;;
23444;SDS011;11895;48.738;9.320;2023-02-01T06:26:04;5.57;;;2.72;;
23444;SDS011;11895;48.738;9.320;2023-02-01T06:28:36;4.90;;;2.42;;
23444;SDS011;11895;48.738;9.320;2023-02-01T06:31:05;8.63;;;2.83;;
23444;SDS011;11895;48.738;9.320;2023-02-01T06:33:34;4.38;;;3.00;;
23444;SDS011;11895;48.738;9.320;2023-02-01T06:36:04;3.40;;;2.20;;
23444;SDS011;11895;48.738;9.320;2023-02-01T06:38:34;6.80;;;2.90;;
23444;SDS011;11895;48.738;9.320;2023-02-01T06:41:02;5.80;;;2.72;;
23444;SDS011;11895;48.738;9.320;2023-02-01T06:43:31;5.32;;;2.72;;
23444;SDS011;11895;48.738;9.320;2023-02-01T06:46:03;4.80;;;2.50;;
23444;SDS011;11895;48.738;9.320;2023-02-01T06:48:34;9.45;;;4.00;;
23444;SDS011;11895;48.738;9.320;2023-02-01T06:51:02;4.05;;;2.53;;
23444;SDS011;11895;48.738;9.320;2023-02-01T06:53:31;6.22;;;3.55;;
23444;SDS011;11895;48.738;9.320;2023-02-01T06:56:02;5.32;;;3.03;;
23444;SDS011;11895;48.738;9.320;2023-02-01T06:58:31;6.30;;;2.28;;
23444;SDS011;11895;48.738;9.320;2023-02-01T07:01:04;6.50;;;3.35;;
23444;SDS011;11895;48.738;9.320;2023-02-01T07:03:33;5.80;;;2.60;;
23444;SDS011;11895;48.738;9.320;2023-02-01T07:06:01;6.35;;;2.60;;
23444;SDS011;11895;48.738;9.320;2023-02-01T07:08:31;5.07;;;2.70;;
23444;SDS011;11895;48.738;9.320;2023-02-01T07:11:01;5.63;;;2.63;;
23444;SDS011;11895;48.738;9.320;2023-02-01T07:13:37;4.22;;;2.40;;
23444;SDS011;11895;48.738;9.320;2023-02-01T07:16:07;6.18;;;2.35;;
23444;SDS011;11895;48.738;9.320;2023-02-01T07:18:41;7.65;;;2.85;;
23444;SDS011;11895;48.738;9.320;2023-02-01T07:21:14;5.90;;;3.22;;
23444;SDS011;11895;48.738;9.320;2023-02-01T07:23:42;4.60;;;2.67;;
23444;SDS011;11895;48.738;9.320;2023-02-01T07:26:11;4.80;;;2.60;;
23444;SDS011;11895;48.738;9.320;2023-02-01T07:28:40;10.07;;;4.20;;
23444;SDS011;11895;48.738;9.320;2023-02-01T07:31:13;3.22;;;2.30;;
23444;SDS011;11895;48.738;9.320;2023-02-01T07:33:45;5.97;;;2.67;;
23444;SDS011;11895;48.738;9.320;2023-02-01T07:36:14;4.20;;;2.45;;
23444;SDS011;11895;48.738;9.320;2023-02-01T07:38:43;4.18;;;2.85;;
23444;SDS011;11895;48.738;9.320;2023-02-01T07:41:13;4.38;;;2.63;;
23444;SDS011;11895;48.738;9.320;2023-02-01T07:43:42;4.03;;;2.40;;
23444;SDS011;11895;48.738;9.320;2023-02-01T07:46:10;2.83;;;2.25;;
23444;SDS011;11895;48.738;9.320;2023-02-01T07:48:38;4.18;;;2.30;;
23444;SDS011;11895;48.738;9.320;2023-02-01T07:51:08;7.72;;;2.10;;
23444;SDS011;11895;48.738;9.320;2023-02-01T07:53:39;6.38;;;2.85;;
23444;SDS011;11895;48.738;9.320;2023-02-01T07:56:12;5.10;;;2.88;;
23444;SDS011;11895;48.738;9.320;2023-02-01T07:58:42;4.45;;;2.30;;
23444;SDS011;11895;48.738;9.320;2023-02-01T08:01:16;5.07;;;2.53;;
23444;SDS011;11895;48.738;9.320;2023-02-01T08:03:55;8.40;;;2.97;;
23444;SDS011;11895;48.738;9.320;2023-02-01T08:06:29;5.60;;;2.35;;
23444;SDS011;11895;48.738;9.320;2023-02-01T08:08:59;5.85;;;2.80;;
23444;SDS011;11895;48.738;9.320;2023-02-01T08:11:28;3.05;;;2.22;;
23444;SDS011;11895;48.738;9.320;2023-02-01T08:13:56;6.05;;;2.55;;
23444;SDS011;11895;48.738;9.320;2023-02-01T08:16:25;3.60;;;2.40;;
23444;SDS011;11895;48.738;9.320;2023-02-01T08:18:53;3.90;;;2.20;;
23444;SDS011;11895;48.738;9.320;2023-02-01T08:21:23;5.72;;;2.65;;
23444;SDS011;11895;48.738;9.320;2023-02-01T08:24:08;5.80;;;2.72;;
23444;SDS011;11895;48.738;9.320;2023-02-01T08:26:36;4.68;;;2.20;;
23444;SDS011;11895;48.738;9.320;2023-02-01T08:29:05;6.22;;;2.55;;
23444;SDS011;11895;48.738;9.320;2023-02-01T08:31:34;4.95;;;2.03;;
23444;SDS011;11895;48.738;9.320;2023-02-01T08:34:07;8.30;;;2.67;;
23444;SDS011;11895;48.738;9.320;2023-02-01T08:36:35;5.68;;;2.78;;
23444;SDS011;11895;48.738;9.320;2023-02-01T08:39:04;5.72;;;2.10;;
23444;SDS011;11895;48.738;9.320;2023-02-01T08:41:36;3.83;;;2.17;;
23444;SDS011;11895;48.738;9.320;2023-02-01T08:44:04;4.93;;;2.20;;
23444;SDS011;11895;48.738;9.320;2023-02-01T08:46:31;4.85;;;2.30;;
23444;SDS011;11895;48.738;9.320;2023-02-01T08:48:59;5.40;;;2.58;;
23444;SDS011;11895;48.738;9.320;2023-02-01T08:51:27;4.97;;;2.25;;
23444;SDS011;11895;48.738;9.320;2023-02-01T08:53:54;7.43;;;2.78;;
23444;SDS011;11895;48.738;9.320;2023-02-01T08:56:22;6.97;;;2.80;;
23444;SDS011;11895;48.738;9.320;2023-02-01T08:58:50;6.70;;;2.55;;
23444;SDS011;11895;48.738;9.320;2023-02-01T09:01:17;6.25;;;2.55;;
23444;SDS011;11895;48.738;9.320;2023-02-01T09:03:45;7.95;;;2.58;;
23444;SDS011;11895;48.738;9.320;2023-02-01T09:06:14;4.63;;;2.40;;
23444;SDS011;11895;48.738;9.320;2023-02-01T09:08:42;4.55;;;2.35;;
23444;SDS011;11895;48.738;9.320;2023-02-01T09:11:12;4.25;;;2.30;;
23444;SDS011;11895;48.738;9.320;2023-02-01T09:13:43;9.05;;;2.40;;
23444;SDS011;11895;48.738;9.320;2023-02-01T09:16:12;4.53;;;2.03;;
23444;SDS011;11895;48.738;9.320;2023-02-01T09:18:40;6.53;;;1.92;;
23444;SDS011;11895;48.738;9.320;2023-02-01T09:21:27;4.65;;;2.53;;
23444;SDS011;11895;48.738;9.320;2023-02-01T09:23:55;3.15;;;2.33;;
23444;SDS011;11895;48.738;9.320;2023-02-01T09:26:23;6.95;;;2.92;;
23444;SDS011;11895;48.738;9.320;2023-02-01T09:28:58;5.70;;;2.65;;
23444;SDS011;11895;48.738;9.320;2023-02-01T09:31:26;5.90;;;3.10;;
23444;SDS011;11895;48.738;9.320;2023-02-01T09:33:54;5.10;;;2.15;;
23444;SDS011;11895;48.738;9.320;2023-02-01T09:36:23;5.40;;;2.17;;
23444;SDS011;11895;48.738;9.320;2023-02-01T09:38:50;5.00;;;2.40;;
23444;SDS011;11895;48.738;9.320;2023-02-01T09:41:23;4.43;;;2.13;;
23444;SDS011;11895;48.738;9.320;2023-02-01T09:44:14;8.05;;;2.30;;
23444;SDS011;11895;48.738;9.320;2023-02-01T09:47:13;7.88;;;2.33;;
23444;SDS011;11895;48.738;9.320;2023-02-01T09:50:28;5.70;;;2.15;;
23444;SDS011;11895;48.738;9.320;2023-02-01T09:55:43;7.82;;;2.88;;
23444;SDS011;11895;48.738;9.320;2023-02-01T09:58:18;4.85;;;2.10;;
23444;SDS011;11895;48.738;9.320;2023-02-01T10:00:57;6.53;;;2.05;;
23444;SDS011;11895;48.738;9.320;2023-02-01T10:03:28;8.07;;;2.30;;
23444;SDS011;11895;48.738;9.320;2023-02-01T10:06:16;7.28;;;2.20;;
23444;SDS011;11895;48.738;9.320;2023-02-01T10:09:33;6.60;;;2.35;;
23444;SDS011;11895;48.738;9.320;2023-02-01T10:26:55;10.05;;;2.38;;
23444;SDS011;11895;48.738;9.320;2023-02-01T10:29:39;11.32;;;2.78;;
23444;SDS011;11895;48.738;9.320;2023-02-01T10:32:11;9.02;;;2.28;;
23444;SDS011;11895;48.738;9.320;2023-02-01T10:34:44;12.15;;;3.30;;
23444;SDS011;11895;48.738;9.320;2023-02-01T10:37:32;10.35;;;2.40;;
23444;SDS011;11895;48.738;9.320;2023-02-01T10:40:23;10.38;;;3.28;;
23444;SDS011;11895;48.738;9.320;2023-02-01T10:42:59;11.00;;;3.13;;
23444;SDS011;11895;48.738;9.320;2023-02-01T10:45:29;11.20;;;3.00;;
23444;SDS011;11895;48.738;9.320;2023-02-01T10:48:00;13.20;;;2.65;;
23444;SDS011;11895;48.738;9.320;2023-02-01T10:53:20;9.97;;;2.53;;
23444;SDS011;11895;48.738;9.320;2023-02-01T10:56:07;9.65;;;2.40;;
23444;SDS011;11895;48.738;9.320;2023-02-01T10:58:45;20.92;;;2.47;;
23444;SDS011;11895;48.738;9.320;2023-02-01T11:01:16;9.70;;;2.73;;
23444;SDS011;11895;48.738;9.320;2023-02-01T11:04:10;12.05;;;2.90;;
23444;SDS011;11895;48.738;9.320;2023-02-01T11:06:41;14.35;;;4.18;;
23444;SDS011;11895;48.738;9.320;2023-02-01T11:09:23;8.30;;;2.30;;
23444;SDS011;11895;48.738;9.320;2023-02-01T11:11:58;13.65;;;2.83;;
23444;SDS011;11895;48.738;9.320;2023-02-01T11:14:30;13.38;;;2.80;;
23444;SDS011;11895;48.738;9.320;2023-02-01T11:19:46;14.63;;;3.50;;
23444;SDS011;11895;48.738;9.320;2023-02-01T11:22:24;12.70;;;2.73;;
23444;SDS011;11895;48.738;9.320;2023-02-01T11:24:55;15.15;;;3.63;;
23444;SDS011;11895;48.738;9.320;2023-02-01T11:27:24;13.48;;;2.83;;
23444;SDS011;11895;48.738;9.320;2023-02-01T11:29:57;12.77;;;2.85;;
23444;SDS011;11895;48.738;9.320;2023-02-01T11:32:52;8.85;;;2.35;;
23444;SDS011;11895;48.738;9.320;2023-02-01T11:35:20;14.35;;;3.95;;
23444;SDS011;11895;48.738;9.320;2023-02-01T11:37:52;12.15;;;2.92;;
23444;SDS011;11895;48.738;9.320;2023-02-01T11:40:28;17.77;;;3.55;;
23444;SDS011;11895;48.738;9.320;2023-02-01T11:45:55;14.80;;;3.15;;
23444;SDS011;11895;48.738;9.320;2023-02-01T11:48:29;21.05;;;3.83;;
23444;SDS011;11895;48.738;9.320;2023-02-01T11:57:45;11.52;;;2.72;;
23444;SDS011;11895;48.738;9.320;2023-02-01T12:03:31;19.80;;;3.53;;
23444;SDS011;11895;48.738;9.320;2023-02-01T12:30:33;12.98;;;3.30;;
23444;SDS011;11895;48.738;9.320;2023-02-01T12:47:12;15.60;;;3.40;;
23444;SDS011;11895;48.738;9.320;2023-02-01T12:49:48;18.45;;;3.53;;
23444;SDS011;11895;48.738;9.320;2023-02-01T12:52:54;15.25;;;3.10;;
23444;SDS011;11895;48.738;9.320;2023-02-01T12:55:41;20.38;;;3.13;;
23444;SDS011;11895;48.738;9.320;2023-02-01T13:01:05;18.98;;;3.42;;
23444;SDS011;11895;48.738;9.320;2023-02-01T13:06:10;14.93;;;3.15;;
23444;SDS011;11895;48.738;9.320;2023-02-01T13:09:07;11.30;;;2.30;;
23444;SDS011;11895;48.738;9.320;2023-02-01T13:11:46;13.45;;;2.90;;
23444;SDS011;11895;48.738;9.320;2023-02-01T13:17:00;18.48;;;3.35;;
23444;SDS011;11895;48.738;9.320;2023-02-01T13:19:37;11.45;;;2.33;;
23444;SDS011;11895;48.738;9.320;2023-02-01T13:22:25;16.42;;;3.10;;
23444;SDS011;11895;48.738;9.320;2023-02-01T13:25:03;18.25;;;2.92;;
23444;SDS011;11895;48.738;9.320;2023-02-01T13:27:47;13.25;;;2.72;;
23444;SDS011;11895;48.738;9.320;2023-02-01T13:30:20;18.07;;;3.30;;
23444;SDS011;11895;48.738;9.320;2023-02-01T13:39:04;14.50;;;3.25;;
23444;SDS011;11895;48.738;9.320;2023-02-01T13:42:23;21.08;;;3.58;;
23444;SDS011;11895;48.738;9.320;2023-02-01T13:45:03;18.40;;;3.33;;
23444;SDS011;11895;48.738;9.320;2023-02-01T13:47:48;19.27;;;3.10;;
23444;SDS011;11895;48.738;9.320;2023-02-01T13:53:04;16.65;;;2.60;;
23444;SDS011;11895;48.738;9.320;2023-02-01T13:55:44;16.52;;;3.13;;
23444;SDS011;11895;48.738;9.320;2023-02-01T13:58:28;15.43;;;3.17;;
23444;SDS011;11895;48.738;9.320;2023-02-01T14:03:56;14.65;;;2.90;;
23444;SDS011;11895;48.738;9.320;2023-02-01T14:12:32;20.08;;;3.00;;
23444;SDS011;11895;48.738;9.320;2023-02-01T14:23:13;11.38;;;2.50;;
23444;SDS011;11895;48.738;9.320;2023-02-01T14:25:44;9.35;;;2.38;;
23444;SDS011;11895;48.738;9.320;2023-02-01T14:28:24;7.90;;;2.55;;
23444;SDS011;11895;48.738;9.320;2023-02-01T14:30:56;15.65;;;3.03;;
23444;SDS011;11895;48.738;9.320;2023-02-01T14:33:27;12.57;;;2.80;;
23444;SDS011;11895;48.738;9.320;2023-02-01T14:38:35;16.10;;;2.47;;
23444;SDS011;11895;48.738;9.320;2023-02-01T14:52:21;15.95;;;3.15;;
23444;SDS011;11895;48.738;9.320;2023-02-01T14:55:14;11.77;;;2.55;;
23444;SDS011;11895;48.738;9.320;2023-02-01T14:57:57;9.13;;;2.42;;
23444;SDS011;11895;48.738;9.320;2023-02-01T15:00:29;11.43;;;3.40;;
23444;SDS011;11895;48.738;9.320;2023-02-01T15:03:23;16.45;;;3.08;;
23444;SDS011;11895;48.738;9.320;2023-02-01T15:06:29;11.18;;;2.50;;
23444;SDS011;11895;48.738;9.320;2023-02-01T15:09:16;18.50;;;2.80;;
23444;SDS011;11895;48.738;9.320;2023-02-01T15:12:25;14.40;;;4.35;;
23444;SDS011;11895;48.738;9.320;2023-02-01T15:17:54;23.50;;;3.25;;
23444;SDS011;11895;48.738;9.320;2023-02-01T15:20:27;13.75;;;3.20;;
23444;SDS011;11895;48.738;9.320;2023-02-01T15:25:31;15.38;;;3.20;;
23444;SDS011;11895;48.738;9.320;2023-02-01T15:28:03;12.43;;;2.83;;
23444;SDS011;11895;48.738;9.320;2023-02-01T15:30:35;12.93;;;2.97;;
23444;SDS011;11895;48.738;9.320;2023-02-01T15:33:21;14.63;;;2.73;;
23444;SDS011;11895;48.738;9.320;2023-02-01T15:35:50;10.63;;;2.58;;
23444;SDS011;11895;48.738;9.320;2023-02-01T15:38:36;22.63;;;2.75;;
23444;SDS011;11895;48.738;9.320;2023-02-01T15:46:22;10.18;;;2.58;;
23444;SDS011;11895;48.738;9.320;2023-02-01T15:48:58;12.73;;;2.65;;
23444;SDS011;11895;48.738;9.320;2023-02-01T15:51:27;14.35;;;2.92;;
23444;SDS011;11895;48.738;9.320;2023-02-01T15:54:04;12.52;;;3.00;;
23444;SDS011;11895;48.738;9.320;2023-02-01T15:56:38;15.18;;;3.20;;
23444;SDS011;11895;48.738;9.320;2023-02-01T15:59:15;13.15;;;3.05;;
23444;SDS011;11895;48.738;9.320;2023-02-01T16:05:59;16.70;;;3.22;;
23444;SDS011;11895;48.738;9.320;2023-02-01T16:08:33;20.90;;;3.08;;
23444;SDS011;11895;48.738;9.320;2023-02-01T16:13:58;19.27;;;3.10;;
23444;SDS011;11895;48.738;9.320;2023-02-01T16:16:27;14.23;;;3.13;;
23444;SDS011;11895;48.738;9.320;2023-02-01T16:18:56;19.00;;;3.30;;
23444;SDS011;11895;48.738;9.320;2023-02-01T16:21:24;15.40;;;3.28;;
23444;SDS011;11895;48.738;9.320;2023-02-01T16:23:52;14.13;;;2.67;;
23444;SDS011;11895;48.738;9.320;2023-02-01T16:26:22;13.43;;;3.60;;
23444;SDS011;11895;48.738;9.320;2023-02-01T16:28:49;12.68;;;3.03;;
23444;SDS011;11895;48.738;9.320;2023-02-01T16:31:18;15.73;;;2.60;;
23444;SDS011;11895;48.738;9.320;2023-02-01T16:33:54;18.15;;;2.85;;
23444;SDS011;11895;48.738;9.320;2023-02-01T16:36:22;15.93;;;3.00;;
23444;SDS011;11895;48.738;9.320;2023-02-01T16:38:51;11.32;;;2.92;;
23444;SDS011;11895;48.738;9.320;2023-02-01T16:41:20;16.08;;;2.78;;
23444;SDS011;11895;48.738;9.320;2023-02-01T16:43:51;12.65;;;2.88;;
23444;SDS011;11895;48.738;9.320;2023-02-01T16:46:22;20.10;;;3.42;;
23444;SDS011;11895;48.738;9.320;2023-02-01T16:48:54;16.35;;;3.58;;
23444;SDS011;11895;48.738;9.320;2023-02-01T16:51:33;14.27;;;3.08;;
23444;SDS011;11895;48.738;9.320;2023-02-01T16:54:01;14.07;;;2.95;;
23444;SDS011;11895;48.738;9.320;2023-02-01T16:56:30;11.83;;;3.13;;
23444;SDS011;11895;48.738;9.320;2023-02-01T16:59:00;13.35;;;3.15;;
23444;SDS011;11895;48.738;9.320;2023-02-01T17:01:28;11.77;;;3.33;;
23444;SDS011;11895;48.738;9.320;2023-02-01T17:03:56;18.17;;;3.15;;
23444;SDS011;11895;48.738;9.320;2023-02-01T17:06:24;17.38;;;3.47;;
23444;SDS011;11895;48.738;9.320;2023-02-01T17:08:55;10.30;;;2.97;;
23444;SDS011;11895;48.738;9.320;2023-02-01T17:11:25;17.95;;;3.03;;
23444;SDS011;11895;48.738;9.320;2023-02-01T17:13:59;12.88;;;2.83;;
23444;SDS011;11895;48.738;9.320;2023-02-01T17:16:42;13.43;;;3.42;;
23444;SDS011;11895;48.738;9.320;2023-02-01T17:19:13;13.30;;;3.08;;
23444;SDS011;11895;48.738;9.320;2023-02-01T17:21:45;15.10;;;2.95;;
23444;SDS011;11895;48.738;9.320;2023-02-01T17:24:18;16.98;;;3.33;;
23444;SDS011;11895;48.738;9.320;2023-02-01T17:26:51;17.20;;;3.22;;
23444;SDS011;11895;48.738;9.320;2023-02-01T17:29:19;19.65;;;3.97;;
23444;SDS011;11895;48.738;9.320;2023-02-01T17:31:49;20.42;;;3.30;;
23444;SDS011;11895;48.738;9.320;2023-02-01T17:34:21;12.32;;;2.70;;
23444;SDS011;11895;48.738;9.320;2023-02-01T17:36:48;14.13;;;3.17;;
23444;SDS011;11895;48.738;9.320;2023-02-01T17:39:17;14.00;;;3.67;;
23444;SDS011;11895;48.738;9.320;2023-02-01T17:42:04;11.35;;;3.10;;
23444;SDS011;11895;48.738;9.320;2023-02-01T17:44:36;18.30;;;3.53;;
23444;SDS011;11895;48.738;9.320;2023-02-01T17:47:04;16.73;;;3.75;;
23444;SDS011;11895;48.738;9.320;2023-02-01T17:49:32;20.00;;;4.18;;
23444;SDS011;11895;48.738;9.320;2023-02-01T17:52:01;18.17;;;3.53;;
23444;SDS011;11895;48.738;9.320;2023-02-01T17:54:29;18.15;;;3.58;;
23444;SDS011;11895;48.738;9.320;2023-02-01T17:56:57;16.13;;;3.92;;
23444;SDS011;11895;48.738;9.320;2023-02-01T18:04:49;19.40;;;3.92;;
23444;SDS011;11895;48.738;9.320;2023-02-01T18:07:18;21.63;;;5.82;;
23444;SDS011;11895;48.738;9.320;2023-02-01T18:09:46;10.82;;;3.53;;
23444;SDS011;11895;48.738;9.320;2023-02-01T18:12:16;18.80;;;3.25;;
23444;SDS011;11895;48.738;9.320;2023-02-01T18:14:47;18.15;;;3.65;;
23444;SDS011;11895;48.738;9.320;2023-02-01T18:17:15;13.38;;;3.65;;
23444;SDS011;11895;48.738;9.320;2023-02-01T18:19:42;16.45;;;4.00;;
23444;SDS011;11895;48.738;9.320;2023-02-01T18:22:17;17.20;;;3.78;;
23444;SDS011;11895;48.738;9.320;2023-02-01T18:24:48;16.80;;;3.65;;
23444;SDS011;11895;48.738;9.320;2023-02-01T18:27:16;22.30;;;3.58;;
23444;SDS011;11895;48.738;9.320;2023-02-01T18:29:44;14.45;;;3.63;;